Time;durP1;ratioP1;P1;durP2;ratioP2;P2;SDS_P1;SDS_P2;PMS_P1;PMS_P2;Temp;Humidity;BMP_temperature;BMP_pressure;BME280_temperature;BME280_humidity;BME280_pressure;Samples;Min_cycle;Max_cycle;Signal;HPM_P1;HPM_P2
2023/08/31 00:01:03;;;;;;;3.88;1.23;;;;;;;13.81;100.00;100170.63;5105510;28;20045;-68
2023/08/31 00:03:31;;;;;;;4.65;1.23;;;;;;;13.73;100.00;100165.81;5098122;28;20138;-68
2023/08/31 00:06:01;;;;;;;7.65;1.90;;;;;;;13.54;100.00;100167.84;5102012;28;20471;-68
2023/08/31 00:08:28;;;;;;;5.68;1.40;;;;;;;13.43;100.00;100165.84;5106604;28;20133;-68
2023/08/31 00:11:00;;;;;;;4.07;1.35;;;;;;;13.48;100.00;100169.06;5097560;28;20144;-67
2023/08/31 00:13:27;;;;;;;4.03;1.20;;;;;;;13.49;100.00;100162.84;5091321;28;20485;-68
2023/08/31 00:15:59;;;;;;;3.63;1.23;;;;;;;13.38;100.00;100162.66;5091746;28;20151;-68
2023/08/31 00:18:26;;;;;;;5.32;1.35;;;;;;;13.28;100.00;100155.28;5104766;28;20127;-68
2023/08/31 00:20:53;;;;;;;5.70;1.48;;;;;;;13.25;100.00;100157.22;5109030;28;20200;-68
2023/08/31 00:23:19;;;;;;;6.10;1.55;;;;;;;13.38;100.00;100163.47;5102388;28;20493;-68
2023/08/31 00:25:52;;;;;;;6.80;1.52;;;;;;;13.15;100.00;100156.91;5103359;28;20101;-68
2023/08/31 00:28:19;;;;;;;5.27;1.70;;;;;;;13.11;100.00;100164.13;5097019;28;20051;-69
2023/08/31 00:30:46;;;;;;;5.03;1.33;;;;;;;13.07;100.00;100157.34;5124723;27;20286;-68
2023/08/31 00:33:13;;;;;;;5.13;1.40;;;;;;;12.93;100.00;100152.03;5101324;28;20134;-68
2023/08/31 00:35:46;;;;;;;5.53;1.33;;;;;;;12.73;100.00;100142.66;5097776;28;20052;-68
2023/08/31 00:38:13;;;;;;;4.88;1.40;;;;;;;12.80;100.00;100165.03;5098490;28;20044;-68
2023/08/31 00:40:44;;;;;;;5.68;1.33;;;;;;;12.94;100.00;100160.75;5101807;28;20122;-68
2023/08/31 00:43:15;;;;;;;2.97;1.30;;;;;;;12.92;100.00;100147.69;5101593;28;20130;-69
2023/08/31 00:45:44;;;;;;;4.22;1.30;;;;;;;13.00;100.00;100153.38;5098686;28;20449;-68
2023/08/31 00:48:14;;;;;;;3.35;1.30;;;;;;;12.98;100.00;100151.75;5097044;28;20051;-68
2023/08/31 00:50:41;;;;;;;3.80;1.25;;;;;;;12.97;100.00;100152.72;5100601;28;20078;-68
2023/08/31 00:53:08;;;;;;;4.18;1.20;;;;;;;12.98;100.00;100154.38;5108348;28;20055;-68
2023/08/31 00:55:35;;;;;;;5.50;1.40;;;;;;;12.98;100.00;100155.25;5100284;28;20044;-68
2023/08/31 00:58:02;;;;;;;3.95;1.30;;;;;;;12.98;100.00;100155.25;5103829;28;20499;-68
2023/08/31 01:01:07;;;;;;;4.45;1.50;;;;;;;12.97;100.00;100156.16;5106343;28;20055;-68
2023/08/31 01:03:57;;;;;;;3.50;1.25;;;;;;;12.93;100.00;100159.91;5096011;28;20048;-68
2023/08/31 01:06:50;;;;;;;5.82;1.20;;;;;;;12.92;100.00;100166.09;5096713;28;20452;-68
2023/08/31 01:09:49;;;;;;;4.90;1.50;;;;;;;12.98;100.00;100170.16;5109969;28;20050;-68
2023/08/31 01:12:22;;;;;;;4.53;1.40;;;;;;;12.89;100.00;100167.13;5083654;28;20385;-68
2023/08/31 01:14:58;;;;;;;4.30;1.40;;;;;;;12.90;100.00;100174.06;5108932;28;20052;-68
2023/08/31 01:17:29;;;;;;;3.35;1.10;;;;;;;12.98;100.00;100167.53;5110089;28;20098;-68
2023/08/31 01:19:59;;;;;;;3.88;1.25;;;;;;;12.94;100.00;100158.13;5110159;28;20048;-68
2023/08/31 01:22:37;;;;;;;2.75;1.20;;;;;;;12.98;100.00;100171.03;5106840;28;20051;-68
2023/08/31 01:25:05;;;;;;;3.78;1.17;;;;;;;12.79;100.00;100134.41;5110148;28;20051;-68
2023/08/31 01:27:32;;;;;;;2.30;1.05;;;;;;;13.01;100.00;100157.69;5101993;28;20051;-68
2023/08/31 01:29:59;;;;;;;2.35;1.00;;;;;;;13.11;100.00;100161.50;5105135;28;20412;-68
2023/08/31 01:32:26;;;;;;;3.53;1.15;;;;;;;13.19;100.00;100153.19;5096193;28;20630;-68
2023/08/31 01:34:53;;;;;;;3.45;1.08;;;;;;;13.32;100.00;100160.38;5107252;28;20097;-67
2023/08/31 01:37:45;;;;;;;3.38;1.23;;;;;;;13.36;100.00;100160.09;5101534;28;20066;-68
2023/08/31 01:40:19;;;;;;;3.42;1.20;;;;;;;13.31;100.00;100146.38;5106010;28;20042;-68
2023/08/31 01:42:47;;;;;;;5.57;1.25;;;;;;;13.29;100.00;100150.84;5097844;28;20064;-68
2023/08/31 01:45:18;;;;;;;1.75;0.98;;;;;;;13.33;100.00;100149.75;5105862;28;20127;-68
2023/08/31 01:47:47;;;;;;;4.03;1.35;;;;;;;13.41;100.00;100165.09;5096758;28;20133;-68
2023/08/31 01:50:14;;;;;;;3.95;1.10;;;;;;;13.46;100.00;100155.16;5096140;28;20048;-68
2023/08/31 01:52:41;;;;;;;3.58;1.23;;;;;;;13.38;100.00;100160.00;5103585;28;20044;-68
2023/08/31 01:55:08;;;;;;;4.30;1.10;;;;;;;13.31;100.00;100154.25;5089638;28;20084;-68
2023/08/31 01:57:35;;;;;;;3.70;1.15;;;;;;;13.06;100.00;100157.44;5099310;28;20051;-68
2023/08/31 02:00:04;;;;;;;4.07;1.60;;;;;;;12.96;100.00;100170.25;5107499;28;20346;-68
2023/08/31 02:02:31;;;;;;;6.40;1.40;;;;;;;12.73;100.00;100168.94;5097185;28;20436;-68
2023/08/31 02:05:01;;;;;;;3.28;1.30;;;;;;;12.57;100.00;100160.19;5090320;28;20048;-68
2023/08/31 02:07:28;;;;;;;3.70;1.35;;;;;;;12.53;100.00;100167.38;5097142;28;20462;-68
2023/08/31 02:09:55;;;;;;;5.00;1.67;;;;;;;12.52;100.00;100177.03;5093419;28;20474;-68
2023/08/31 02:12:22;;;;;;;4.05;1.42;;;;;;;12.46;100.00;100179.16;5101413;28;20582;-68
2023/08/31 02:14:49;;;;;;;5.53;2.00;;;;;;;12.50;100.00;100175.41;5111473;27;20125;-68
2023/08/31 02:17:16;;;;;;;3.72;1.48;;;;;;;12.57;100.00;100181.19;5105576;28;20503;-68
2023/08/31 02:19:42;;;;;;;4.70;1.40;;;;;;;12.72;100.00;100189.06;5098281;28;20295;-68
2023/08/31 02:22:09;;;;;;;4.18;1.35;;;;;;;12.61;100.00;100188.81;5102568;28;20512;-68
2023/08/31 02:24:36;;;;;;;4.03;1.35;;;;;;;12.70;100.00;100192.72;5098962;27;20492;-68
2023/08/31 02:27:02;;;;;;;3.90;1.40;;;;;;;12.75;100.00;100184.56;5100204;28;20046;-68
2023/08/31 02:29:29;;;;;;;5.10;1.40;;;;;;;12.80;100.00;100182.53;5098860;28;20044;-68
2023/08/31 02:31:56;;;;;;;4.10;1.33;;;;;;;12.76;100.00;100183.66;5097785;28;20046;-68
2023/08/31 02:34:22;;;;;;;5.47;1.35;;;;;;;12.75;100.00;100179.31;5098262;28;20051;-68
2023/08/31 02:36:49;;;;;;;3.25;1.20;;;;;;;12.57;100.00;100183.81;5091957;28;20052;-68
2023/08/31 02:39:16;;;;;;;2.88;1.27;;;;;;;12.45;100.00;100193.22;5102869;28;20127;-68
2023/08/31 02:41:43;;;;;;;6.00;1.48;;;;;;;12.40;100.00;100182.97;5098470;28;20121;-68
2023/08/31 02:44:11;;;;;;;2.97;1.20;;;;;;;12.38;100.00;100189.22;5112363;28;20047;-68
2023/08/31 02:46:38;;;;;;;5.15;1.20;;;;;;;12.32;100.00;100182.50;5109850;28;20093;-68
2023/08/31 02:49:05;;;;;;;4.13;1.33;;;;;;;12.34;100.00;100189.41;5099694;28;20048;-68
2023/08/31 02:51:32;;;;;;;3.15;1.20;;;;;;;12.41;100.00;100187.28;5106600;28;20134;-68
2023/08/31 02:53:59;;;;;;;3.58;1.30;;;;;;;12.30;100.00;100176.50;5111356;28;20047;-69
2023/08/31 02:56:25;;;;;;;4.32;1.38;;;;;;;12.29;100.00;100188.78;5112723;28;20393;-68
2023/08/31 02:58:52;;;;;;;3.22;1.20;;;;;;;12.30;100.00;100184.38;5111594;28;20602;-68
2023/08/31 03:01:19;;;;;;;7.20;1.33;;;;;;;12.38;100.00;100183.97;5112240;28;20400;-68
2023/08/31 03:03:46;;;;;;;4.35;1.05;;;;;;;12.51;100.00;100187.63;5108669;28;20058;-68
2023/08/31 03:06:15;;;;;;;2.30;1.10;;;;;;;12.34;100.00;100176.28;5099133;28;20135;-68
2023/08/31 03:08:41;;;;;;;3.38;1.20;;;;;;;12.35;100.00;100177.94;5108726;28;20135;-68
2023/08/31 03:11:08;;;;;;;4.72;1.40;;;;;;;12.35;100.00;100174.47;5106725;28;20413;-68
2023/08/31 03:13:35;;;;;;;4.15;1.10;;;;;;;12.50;100.00;100173.66;5105792;28;20118;-68
2023/08/31 03:16:02;;;;;;;2.22;1.00;;;;;;;12.42;100.00;100173.22;5097028;28;20130;-68
2023/08/31 03:18:29;;;;;;;2.17;1.00;;;;;;;12.45;100.00;100175.69;5096846;28;20131;-68
2023/08/31 03:20:56;;;;;;;3.47;1.17;;;;;;;12.43;100.00;100168.81;5104823;28;20485;-68
2023/08/31 03:23:23;;;;;;;1.08;0.80;;;;;;;12.41;100.00;100166.28;5104087;28;20166;-69
2023/08/31 03:25:49;;;;;;;1.73;0.90;;;;;;;12.31;100.00;100167.72;5095516;28;20451;-68
2023/08/31 03:28:16;;;;;;;2.40;0.93;;;;;;;12.28;100.00;100166.09;5106461;28;20054;-68
2023/08/31 03:30:44;;;;;;;3.72;1.00;;;;;;;12.32;100.00;100172.88;5122041;27;20048;-68
2023/08/31 03:33:12;;;;;;;3.80;1.20;;;;;;;12.23;100.00;100160.22;5103843;28;20044;-68
2023/08/31 03:35:39;;;;;;;2.25;1.10;;;;;;;12.22;100.00;100176.09;5099124;28;20202;-68
2023/08/31 03:38:06;;;;;;;5.25;1.30;;;;;;;12.26;100.00;100154.00;5110821;28;20162;-68
2023/08/31 03:40:32;;;;;;;4.03;0.93;;;;;;;12.18;100.00;100143.03;5098884;28;20044;-68
2023/08/31 03:42:59;;;;;;;2.97;1.10;;;;;;;12.32;100.00;100159.75;5099505;28;20055;-68
2023/08/31 03:45:27;;;;;;;2.60;1.10;;;;;;;12.24;100.00;100167.19;5109914;28;20048;-68
2023/08/31 03:47:54;;;;;;;1.58;0.90;;;;;;;12.27;100.00;100161.78;5109391;28;20055;-68
2023/08/31 03:50:22;;;;;;;4.13;1.25;;;;;;;12.25;100.00;100162.78;5106778;28;20485;-68
2023/08/31 03:52:48;;;;;;;4.40;1.05;;;;;;;12.28;100.00;100158.22;5093979;28;20048;-68
2023/08/31 03:55:15;;;;;;;2.28;0.98;;;;;;;12.25;100.00;100158.41;5104598;28;20051;-68
2023/08/31 03:57:42;;;;;;;2.92;1.10;;;;;;;12.29;100.00;100162.53;5100461;28;20043;-68
2023/08/31 04:00:10;;;;;;;2.95;1.10;;;;;;;12.24;100.00;100153.22;5100842;28;20051;-68
2023/08/31 04:02:37;;;;;;;2.80;1.10;;;;;;;12.34;100.00;100160.53;5094252;28;20048;-68
2023/08/31 04:05:05;;;;;;;2.40;0.98;;;;;;;12.26;100.00;100151.38;5104861;28;20098;-68
2023/08/31 04:07:35;;;;;;;2.58;0.95;;;;;;;12.31;100.00;100157.22;5090808;28;20442;-68
2023/08/31 04:10:03;;;;;;;1.98;0.95;;;;;;;12.28;100.00;100149.50;5118675;27;20048;-68
2023/08/31 04:12:30;;;;;;;1.95;0.90;;;;;;;12.27;100.00;100167.03;5109876;28;20051;-68
2023/08/31 04:14:57;;;;;;;2.25;1.10;;;;;;;12.31;100.00;100162.47;5106376;28;20043;-68
2023/08/31 04:17:24;;;;;;;2.63;1.00;;;;;;;12.26;100.00;100162.69;5109544;28;20048;-68
2023/08/31 04:19:50;;;;;;;2.15;1.00;;;;;;;12.21;100.00;100164.72;5097544;28;20048;-68
2023/08/31 04:22:17;;;;;;;2.33;1.02;;;;;;;12.14;100.00;100165.97;5104681;28;20501;-68
2023/08/31 04:24:44;;;;;;;3.00;1.02;;;;;;;12.15;100.00;100163.28;5101446;28;20139;-67
2023/08/31 04:27:10;;;;;;;2.75;1.00;;;;;;;12.13;100.00;100165.13;5108577;28;20047;-68
2023/08/31 04:29:37;;;;;;;3.65;1.27;;;;;;;12.09;100.00;100153.13;5104036;28;20164;-68
2023/08/31 04:32:05;;;;;;;3.17;1.15;;;;;;;12.06;100.00;100162.94;5103894;28;20068;-68
2023/08/31 04:34:32;;;;;;;2.60;1.08;;;;;;;11.98;100.00;100158.06;5103302;28;20083;-68
2023/08/31 04:36:58;;;;;;;5.07;1.48;;;;;;;11.95;100.00;100158.22;5092158;28;20055;-68
2023/08/31 04:39:26;;;;;;;3.83;1.20;;;;;;;12.01;100.00;100159.69;5096022;28;20689;-67
2023/08/31 04:41:53;;;;;;;3.63;1.10;;;;;;;12.06;100.00;100168.19;5098605;28;20044;-67
2023/08/31 04:44:20;;;;;;;4.00;1.42;;;;;;;12.02;100.00;100158.75;5100889;28;20044;-67
2023/08/31 04:46:47;;;;;;;3.13;1.10;;;;;;;12.06;100.00;100160.31;5106983;28;20047;-68
2023/08/31 04:49:14;;;;;;;3.15;1.35;;;;;;;12.08;100.00;100161.06;5092310;28;20394;-67
2023/08/31 04:51:41;;;;;;;4.45;1.17;;;;;;;12.09;100.00;100168.00;5107768;28;20040;-68
2023/08/31 04:54:08;;;;;;;3.88;1.38;;;;;;;11.96;100.00;100154.69;5110008;28;20043;-67
2023/08/31 04:56:35;;;;;;;4.55;1.15;;;;;;;12.08;100.00;100171.56;5101900;28;20105;-67
2023/08/31 04:59:05;;;;;;;3.05;1.20;;;;;;;12.12;100.00;100171.31;5092947;28;20052;-67
2023/08/31 05:01:31;;;;;;;1.27;0.88;;;;;;;12.11;100.00;100168.75;5099265;28;20054;-67
2023/08/31 05:03:58;;;;;;;4.60;1.08;;;;;;;12.09;100.00;100175.88;5096539;28;20067;-68
2023/08/31 05:06:26;;;;;;;4.95;1.20;;;;;;;12.11;100.00;100166.13;5092451;28;20416;-67
2023/08/31 05:08:52;;;;;;;2.50;1.00;;;;;;;12.20;100.00;100173.53;5108774;28;20053;-68
2023/08/31 05:11:19;;;;;;;3.13;1.20;;;;;;;12.17;100.00;100172.84;5098109;28;20051;-68
2023/08/31 05:13:47;;;;;;;2.65;0.90;;;;;;;12.22;100.00;100170.84;5108752;28;20047;-68
2023/08/31 05:16:14;;;;;;;1.83;1.00;;;;;;;12.20;100.00;100181.41;5125318;27;20043;-67
2023/08/31 05:18:41;;;;;;;2.63;0.90;;;;;;;12.21;100.00;100187.50;5100815;28;20055;-67
2023/08/31 05:21:07;;;;;;;4.00;1.23;;;;;;;12.04;100.00;100180.50;5110272;28;20052;-68
2023/08/31 05:23:34;;;;;;;3.28;1.20;;;;;;;11.51;100.00;100183.16;5097714;28;20134;-68
2023/08/31 05:26:01;;;;;;;7.25;1.63;;;;;;;11.02;100.00;100190.81;5108712;28;20051;-67
2023/08/31 05:28:28;;;;;;;4.25;1.45;;;;;;;10.79;100.00;100192.75;5105579;28;20051;-68
2023/08/31 05:30:57;;;;;;;3.25;1.30;;;;;;;10.61;100.00;100194.47;5096748;28;20450;-67
2023/08/31 05:33:28;;;;;;;4.82;1.38;;;;;;;10.73;100.00;100206.16;5108722;28;20052;-67
2023/08/31 05:35:55;;;;;;;3.83;1.60;;;;;;;10.54;100.00;100195.69;5102240;28;20459;-67
2023/08/31 05:38:23;;;;;;;7.10;1.65;;;;;;;10.49;100.00;100191.56;5096235;28;20610;-67
2023/08/31 05:40:50;;;;;;;3.80;1.50;;;;;;;10.55;100.00;100179.06;5096082;28;20122;-67
2023/08/31 05:43:16;;;;;;;4.88;1.50;;;;;;;10.79;100.00;100186.69;5099870;28;20048;-67
2023/08/31 05:45:43;;;;;;;4.03;1.23;;;;;;;10.89;100.00;100163.50;5098491;28;20050;-67
2023/08/31 05:48:10;;;;;;;6.15;1.83;;;;;;;11.24;100.00;100195.84;5095481;28;20051;-67
2023/08/31 05:50:37;;;;;;;3.92;1.30;;;;;;;11.31;100.00;100191.16;5105653;28;20047;-67
2023/08/31 05:53:05;;;;;;;3.97;1.20;;;;;;;11.32;100.00;100200.75;5112416;28;20139;-67
2023/08/31 05:55:32;;;;;;;3.90;1.40;;;;;;;11.21;100.00;100196.88;5106897;28;20051;-68
2023/08/31 05:58:00;;;;;;;3.67;1.33;;;;;;;11.15;100.00;100198.94;5105696;28;20050;-68
2023/08/31 06:00:27;;;;;;;6.10;2.13;;;;;;;11.00;100.00;100198.75;5100254;28;20143;-67
2023/08/31 06:02:54;;;;;;;3.40;1.33;;;;;;;10.90;100.00;100188.78;5109552;28;20083;-68
2023/08/31 06:05:21;;;;;;;3.80;1.55;;;;;;;10.93;100.00;100197.34;5111805;28;20143;-68
2023/08/31 06:07:48;;;;;;;3.90;1.48;;;;;;;10.99;100.00;100193.59;5113023;28;20441;-67
2023/08/31 06:10:15;;;;;;;3.65;1.30;;;;;;;11.20;100.00;100215.28;5111471;28;20500;-67
2023/08/31 06:12:42;;;;;;;4.88;1.52;;;;;;;11.26;100.00;100212.38;5113025;28;20052;-67
2023/08/31 06:15:09;;;;;;;3.17;1.42;;;;;;;11.32;100.00;100208.59;5110008;28;20040;-68
2023/08/31 06:17:36;;;;;;;3.88;1.45;;;;;;;11.37;100.00;100217.94;5110197;28;20044;-67
2023/08/31 06:20:05;;;;;;;5.07;1.40;;;;;;;11.44;100.00;100208.00;5112441;28;20043;-67
2023/08/31 06:22:32;;;;;;;4.53;1.50;;;;;;;11.57;100.00;100216.94;5104490;28;20548;-67
2023/08/31 06:24:59;;;;;;;6.95;1.50;;;;;;;11.64;100.00;100214.84;5110624;28;20057;-67
2023/08/31 06:27:26;;;;;;;3.58;1.40;;;;;;;11.64;100.00;100219.25;5111594;27;20504;-68
2023/08/31 06:29:52;;;;;;;3.15;1.20;;;;;;;11.77;100.00;100218.56;5108157;27;20052;-67
2023/08/31 06:32:19;;;;;;;3.78;1.20;;;;;;;11.80;100.00;100222.81;5109239;28;20040;-68
2023/08/31 06:34:46;;;;;;;3.88;1.25;;;;;;;11.97;100.00;100227.22;5117773;27;20048;-68
2023/08/31 06:37:13;;;;;;;6.47;1.40;;;;;;;11.91;100.00;100206.53;5097599;28;20057;-67
2023/08/31 06:39:40;;;;;;;7.00;1.33;;;;;;;12.01;100.00;100214.81;5095318;28;20052;-67
2023/08/31 06:42:07;;;;;;;5.15;1.70;;;;;;;12.07;100.00;100223.19;5103763;28;20090;-67
2023/08/31 06:44:34;;;;;;;2.38;1.10;;;;;;;12.12;100.00;100209.81;5103646;28;20251;-68
2023/08/31 06:47:01;;;;;;;4.65;1.58;;;;;;;12.09;100.00;100218.72;5094109;28;20052;-67
2023/08/31 06:49:27;;;;;;;4.15;1.38;;;;;;;12.15;100.00;100220.19;5104324;28;20485;-67
2023/08/31 06:51:55;;;;;;;4.50;1.80;;;;;;;12.15;100.00;100215.75;5101926;28;20036;-67
2023/08/31 06:54:22;;;;;;;3.92;1.40;;;;;;;12.48;100.00;100217.53;5107704;28;20452;-67
2023/08/31 06:56:48;;;;;;;4.18;1.55;;;;;;;12.99;100.00;100212.13;5106852;28;20054;-67
2023/08/31 06:59:15;;;;;;;3.70;1.38;;;;;;;14.43;100.00;100217.78;5105498;28;20158;-67
2023/08/31 07:01:42;;;;;;;4.88;1.77;;;;;;;14.67;100.00;100220.66;5110915;28;20127;-67
2023/08/31 07:04:08;;;;;;;9.63;1.98;;;;;;;15.13;100.00;100227.44;5112397;28;20059;-67
2023/08/31 07:06:36;;;;;;;6.32;1.50;;;;;;;15.83;100.00;100226.38;5106564;28;20047;-68
2023/08/31 07:09:05;;;;;;;4.07;1.17;;;;;;;16.21;100.00;100207.06;5098621;28;20143;-67
2023/08/31 07:11:32;;;;;;;6.53;1.75;;;;;;;16.75;100.00;100232.34;5110708;27;20055;-68
2023/08/31 07:13:59;;;;;;;1.98;0.90;;;;;;;17.49;100.00;100234.94;5096868;28;20052;-68
2023/08/31 07:16:26;;;;;;;3.25;1.02;;;;;;;17.80;100.00;100220.25;5107673;28;20066;-68
2023/08/31 07:18:52;;;;;;;5.18;1.05;;;;;;;17.87;100.00;100223.31;5104173;27;20458;-67
2023/08/31 07:21:19;;;;;;;2.45;1.00;;;;;;;18.13;100.00;100230.09;5093709;28;20610;-67
2023/08/31 07:23:46;;;;;;;3.80;1.20;;;;;;;18.28;100.00;100236.00;5095144;27;20044;-67
2023/08/31 07:26:13;;;;;;;3.15;1.00;;;;;;;18.51;100.00;100234.19;5092500;28;20466;-67
2023/08/31 07:28:40;;;;;;;3.58;1.02;;;;;;;18.81;100.00;100242.50;5097013;28;20135;-68
2023/08/31 07:31:07;;;;;;;2.67;0.90;;;;;;;18.95;100.00;100234.31;5098877;28;20320;-67
2023/08/31 07:33:35;;;;;;;3.47;0.90;;;;;;;19.06;100.00;100252.84;5094518;28;20065;-68
2023/08/31 07:36:05;;;;;;;4.10;0.90;;;;;;;19.20;100.00;100256.19;5108696;27;20048;-68
2023/08/31 07:38:32;;;;;;;1.98;0.70;;;;;;;19.32;100.00;100257.84;5101257;28;20046;-67
2023/08/31 07:40:59;;;;;;;3.00;0.80;;;;;;;19.54;100.00;100260.41;5093237;28;20048;-68
2023/08/31 07:43:26;;;;;;;2.35;0.90;;;;;;;19.15;100.00;100259.22;5101184;28;20424;-68
2023/08/31 07:45:53;;;;;;;4.32;1.20;;;;;;;19.21;100.00;100258.72;5094723;28;20483;-69
2023/08/31 07:48:20;;;;;;;3.42;0.95;;;;;;;18.91;100.00;100254.94;5101906;28;20050;-69
2023/08/31 07:50:48;;;;;;;5.72;1.00;;;;;;;18.90;100.00;100258.53;5094030;28;20062;-69
2023/08/31 07:53:17;;;;;;;2.63;0.80;;;;;;;18.79;100.00;100255.88;5103927;28;20051;-69
2023/08/31 07:55:54;;;;;;;2.50;0.80;;;;;;;18.75;100.00;100254.41;5109437;27;20455;-69
2023/08/31 07:58:21;;;;;;;4.13;1.17;;;;;;;18.33;100.00;100263.00;5097578;28;20048;-69
2023/08/31 08:00:49;;;;;;;3.03;0.90;;;;;;;18.20;100.00;100249.00;5105299;28;20055;-69
2023/08/31 08:03:16;;;;;;;2.67;0.80;;;;;;;18.46;100.00;100254.09;5100824;28;20043;-68
2023/08/31 08:05:43;;;;;;;3.20;0.93;;;;;;;18.64;100.00;100257.91;5109863;28;20044;-68
2023/08/31 08:08:10;;;;;;;1.73;0.80;;;;;;;18.64;100.00;100247.31;5100064;28;20053;-68
2023/08/31 08:10:36;;;;;;;4.65;0.80;;;;;;;18.60;100.00;100256.50;5108925;28;20043;-68
2023/08/31 08:13:03;;;;;;;1.23;0.68;;;;;;;18.69;100.00;100253.09;5099342;28;20049;-68
2023/08/31 08:15:30;;;;;;;3.42;0.75;;;;;;;18.76;100.00;100259.59;5110356;28;20055;-69
2023/08/31 08:17:57;;;;;;;2.10;0.80;;;;;;;17.84;100.00;100262.25;5104860;28;20134;-69
2023/08/31 08:20:24;;;;;;;2.28;0.70;;;;;;;17.74;100.00;100271.00;5097467;28;20095;-68
2023/08/31 08:22:54;;;;;;;3.35;0.70;;;;;;;17.73;100.00;100264.88;5106551;28;20052;-69
2023/08/31 08:25:20;;;;;;;1.05;0.60;;;;;;;17.53;100.00;100258.44;5098358;28;20071;-69
2023/08/31 08:27:47;;;;;;;1.63;0.73;;;;;;;17.52;100.00;100266.47;5123851;27;20127;-69
2023/08/31 08:30:18;;;;;;;2.25;0.82;;;;;;;17.57;100.00;100251.09;5111569;28;20366;-69
2023/08/31 08:32:45;;;;;;;3.45;1.00;;;;;;;17.60;100.00;100266.75;5100906;28;20478;-69
2023/08/31 08:35:12;;;;;;;3.95;0.90;;;;;;;17.71;100.00;100266.81;5107759;28;20039;-69
2023/08/31 08:37:39;;;;;;;2.50;0.75;;;;;;;18.53;100.00;100256.13;5110334;28;20055;-69
2023/08/31 08:40:06;;;;;;;3.50;0.98;;;;;;;18.45;100.00;100269.16;5096184;28;20055;-69
2023/08/31 08:42:41;;;;;;;2.25;0.90;;;;;;;18.20;100.00;100270.19;5091049;28;20135;-69
2023/08/31 08:45:17;;;;;;;4.40;1.02;;;;;;;17.99;100.00;100275.34;5094052;28;20139;-69
2023/08/31 08:47:45;;;;;;;2.95;0.90;;;;;;;18.00;100.00;100271.72;5110273;28;20055;-69
2023/08/31 08:50:12;;;;;;;2.17;0.80;;;;;;;18.42;100.00;100272.03;5097303;28;20048;-68
2023/08/31 08:52:40;;;;;;;2.67;0.90;;;;;;;19.03;100.00;100258.38;5093664;28;20048;-69
2023/08/31 08:55:08;;;;;;;3.30;0.80;;;;;;;19.20;100.00;100280.06;5089879;28;20051;-69
2023/08/31 08:57:35;;;;;;;3.10;0.90;;;;;;;18.38;100.00;100271.44;5092979;28;20052;-69
2023/08/31 09:00:03;;;;;;;5.07;0.88;;;;;;;18.24;100.00;100258.41;5101298;28;20469;-69
2023/08/31 09:02:30;;;;;;;2.55;0.80;;;;;;;18.47;100.00;100256.63;5097791;28;20051;-69
2023/08/31 09:04:57;;;;;;;3.22;1.02;;;;;;;18.66;100.00;100266.63;5110020;28;20324;-69
2023/08/31 09:07:24;;;;;;;3.25;1.00;;;;;;;18.50;100.00;100274.94;5109062;28;20097;-68
2023/08/31 09:09:53;;;;;;;2.00;0.90;;;;;;;18.52;100.00;100269.50;5105390;28;20481;-68
2023/08/31 09:12:24;;;;;;;2.95;0.90;;;;;;;18.86;100.00;100285.44;5101444;28;20048;-68
2023/08/31 09:15:06;;;;;;;3.72;0.75;;;;;;;18.93;100.00;100282.16;5109683;28;20130;-68
2023/08/31 09:17:44;;;;;;;1.00;0.67;;;;;;;18.90;100.00;100285.06;5106441;28;20054;-68
2023/08/31 09:20:11;;;;;;;2.88;0.88;;;;;;;18.77;100.00;100274.56;5107130;28;20290;-67
2023/08/31 09:22:42;;;;;;;1.08;0.70;;;;;;;18.72;100.00;100274.09;5106196;28;20059;-68
2023/08/31 09:25:09;;;;;;;2.85;0.80;;;;;;;18.24;100.00;100271.66;5106232;28;20048;-68
2023/08/31 09:27:40;;;;;;;1.88;0.80;;;;;;;18.66;100.00;100258.66;5102317;28;20503;-68
2023/08/31 09:30:08;;;;;;;2.20;0.70;;;;;;;18.99;100.00;100278.19;5107531;28;20079;-68
2023/08/31 09:32:35;;;;;;;3.53;0.90;;;;;;;19.57;100.00;100271.75;5096595;28;20055;-67
2023/08/31 09:35:03;;;;;;;3.25;0.80;;;;;;;19.50;100.00;100272.25;5102901;28;20428;-68
2023/08/31 09:37:56;;;;;;;2.33;0.70;;;;;;;19.75;100.00;100267.59;5090703;28;20420;-68
2023/08/31 09:40:23;;;;;;;1.45;0.75;;;;;;;19.66;100.00;100271.81;5097427;28;20452;-68
2023/08/31 09:42:50;;;;;;;2.13;0.90;;;;;;;20.08;100.00;100263.06;5106826;28;20040;-68
2023/08/31 09:45:31;;;;;;;2.67;1.00;;;;;;;20.36;100.00;100264.22;5107259;28;20477;-68
2023/08/31 09:48:14;;;;;;;1.75;0.60;;;;;;;20.02;100.00;100253.78;5109958;28;20101;-68
2023/08/31 09:50:44;;;;;;;3.03;0.90;;;;;;;19.63;100.00;100272.06;5101060;28;20097;-68
2023/08/31 09:53:12;;;;;;;1.77;0.70;;;;;;;19.85;100.00;100265.03;5096291;28;20044;-67
2023/08/31 09:55:40;;;;;;;1.27;0.70;;;;;;;19.40;100.00;100263.34;5096461;28;20075;-68
2023/08/31 09:58:09;;;;;;;3.30;1.05;;;;;;;19.24;100.00;100273.53;5094057;28;20046;-68
2023/08/31 10:00:43;;;;;;;2.30;0.80;;;;;;;18.99;100.00;100261.44;5105551;28;20505;-68
2023/08/31 10:03:15;;;;;;;2.47;0.80;;;;;;;18.64;100.00;100255.28;5105282;28;20130;-68
2023/08/31 10:05:47;;;;;;;2.15;0.85;;;;;;;18.42;100.00;100258.78;5109979;28;20055;-68
2023/08/31 10:08:15;;;;;;;1.35;0.63;;;;;;;18.50;100.00;100251.09;5110593;28;20477;-68
2023/08/31 10:10:42;;;;;;;3.33;0.77;;;;;;;18.62;100.00;100251.91;5110732;28;20121;-67
2023/08/31 10:13:10;;;;;;;2.95;0.80;;;;;;;19.11;100.00;100242.69;5099058;28;20480;-68
2023/08/31 10:15:38;;;;;;;3.35;0.70;;;;;;;19.33;100.00;100248.91;5109957;28;20048;-68
2023/08/31 10:18:06;;;;;;;2.58;0.98;;;;;;;19.46;100.00;100252.25;5110697;28;20051;-68
2023/08/31 10:20:34;;;;;;;1.58;0.70;;;;;;;19.90;100.00;100252.16;5110174;28;20517;-68
2023/08/31 10:23:05;;;;;;;3.50;0.80;;;;;;;19.67;100.00;100248.75;5098504;28;20048;-68
2023/08/31 10:25:58;;;;;;;3.00;1.00;;;;;;;19.90;100.00;100244.19;5109400;28;20052;-68
2023/08/31 10:28:30;;;;;;;2.80;0.82;;;;;;;19.61;100.00;100239.50;5104302;28;20055;-68
2023/08/31 10:31:03;;;;;;;2.22;0.75;;;;;;;19.89;100.00;100250.50;5107786;28;20051;-68
2023/08/31 10:33:43;;;;;;;2.15;0.75;;;;;;;20.35;100.00;100240.41;5104141;28;20461;-68
2023/08/31 10:36:14;;;;;;;3.65;0.80;;;;;;;20.15;100.00;100244.75;5112781;28;20054;-68
2023/08/31 10:38:59;;;;;;;1.83;0.80;;;;;;;20.36;100.00;100248.25;5113073;28;20047;-68
2023/08/31 10:41:33;;;;;;;0.93;0.68;;;;;;;20.78;100.00;100231.34;5113058;28;20055;-68
2023/08/31 10:44:18;;;;;;;4.80;1.00;;;;;;;20.62;100.00;100235.34;5099034;28;20097;-68
2023/08/31 10:46:45;;;;;;;2.55;0.80;;;;;;;21.00;100.00;100246.22;5107842;28;20051;-68
2023/08/31 10:49:14;;;;;;;3.47;1.10;;;;;;;20.61;100.00;100244.31;5103321;28;20074;-68
2023/08/31 10:51:43;;;;;;;3.63;1.20;;;;;;;20.26;100.00;100240.22;5110950;28;20070;-69
2023/08/31 10:54:20;;;;;;;3.38;1.05;;;;;;;20.38;100.00;100248.97;5111370;28;20042;-68
2023/08/31 10:57:09;;;;;;;3.15;1.20;;;;;;;20.02;100.00;100250.28;5101921;28;20080;-67
2023/08/31 10:59:46;;;;;;;4.07;0.98;;;;;;;19.92;100.00;100255.56;5109601;28;20143;-68
2023/08/31 11:02:29;;;;;;;2.55;1.00;;;;;;;19.76;100.00;100250.69;5111265;28;20902;-69
2023/08/31 11:05:00;;;;;;;;;;;;;;;19.60;100.00;100252.91;5099259;28;20109;-68
2023/08/31 11:07:29;;;;;;;5.07;1.00;;;;;;;19.39;100.00;100240.44;5099455;28;20254;-68
2023/08/31 11:10:12;;;;;;;2.67;1.00;;;;;;;19.45;100.00;100231.97;5112006;28;20055;-68
2023/08/31 11:12:44;;;;;;;4.45;1.08;;;;;;;19.19;100.00;100234.09;5111959;28;20046;-67
2023/08/31 11:15:13;;;;;;;3.42;1.10;;;;;;;18.94;100.00;100243.22;5098681;28;20048;-68
2023/08/31 11:17:41;;;;;;;1.73;0.80;;;;;;;18.84;100.00;100244.91;5099589;28;20399;-68
2023/08/31 11:20:13;;;;;;;3.53;0.95;;;;;;;18.73;100.00;100253.69;5092872;28;20477;-68
2023/08/31 11:22:42;;;;;;;1.75;0.88;;;;;;;18.56;100.00;100242.63;5103925;28;20131;-68
2023/08/31 11:25:10;;;;;;;5.20;1.40;;;;;;;18.00;100.00;100243.41;5109456;28;20134;-68